Suining, China
Current Conditions -  °F | °C
As of 6:00 AM on Sunday 26 Oct 2014 (Local Time) from ZUCK Reporting Station
Haze Haze  
Wind Chill: 64°   Ceiling: Unl
Heat Index: 64°   Visibility: 3mi
Dew Point: 57°   Wind: 4mph
Humidity: 77%   Direction: 20°NNE
Pressure: 30.06"   Gusts: NA
Location:  30.53°N, 105.53°E
Report Text: ZUCK 252200Z 02002MPS 5000 BR NSC 18/14 Q1018 NOSIG
Loading
Personal Weather Stations






























Interactive Weather Map
Tropical Storm Tracking
New forecast layout! Learn more

10-Day Weather Forecast

Advertisements
Track Severe Weather on mobile